createdAt,value
2023-04-02T00:01:00.785Z,60.92
2023-04-02T00:04:02.424Z,61.19
2023-04-02T00:06:28.993Z,62.58
2023-04-02T00:08:56.452Z,61.71
2023-04-02T00:11:32.069Z,60.75
2023-04-02T00:14:02.105Z,61.84
2023-04-02T00:16:29.513Z,62.16
2023-04-02T00:19:01.529Z,61.85
2023-04-02T00:21:32.223Z,61.67
2023-04-02T00:24:07.118Z,61.60
2023-04-02T00:26:44.712Z,59.26
2023-04-02T00:29:13.742Z,61.67
2023-04-02T00:31:46.275Z,60.47
2023-04-02T00:34:32.827Z,60.76
2023-04-02T00:36:59.916Z,62.02
2023-04-02T00:39:30.121Z,62.18
2023-04-02T00:41:58.924Z,61.57
2023-04-02T00:44:28.444Z,62.00
2023-04-02T00:46:55.515Z,62.56
2023-04-02T00:49:34.924Z,60.63
2023-04-02T00:52:18.377Z,60.87
2023-04-02T00:54:52.005Z,61.56
2023-04-02T00:57:22.769Z,61.28
2023-04-02T00:59:59.419Z,60.30
2023-04-02T01:02:29.689Z,61.01
2023-04-02T01:05:15.242Z,61.02
2023-04-02T01:07:57.109Z,59.44
2023-04-02T01:10:31.335Z,60.91
2023-04-02T01:13:13.104Z,61.08
2023-04-02T01:15:47.550Z,61.61
2023-04-02T01:18:32.901Z,60.65
2023-04-02T01:21:05.704Z,62.68
2023-04-02T01:23:57.924Z,60.99
2023-04-02T01:26:43.340Z,60.38
2023-04-02T01:29:16.532Z,61.50
2023-04-02T01:31:45.629Z,62.35
2023-04-02T01:34:17.781Z,62.44
2023-04-02T01:37:01.996Z,60.87
2023-04-02T01:39:42.076Z,61.98
2023-04-02T01:42:20.686Z,61.97
2023-04-02T01:44:54.377Z,62.40
2023-04-02T01:47:25.132Z,62.21
2023-04-02T01:49:57.041Z,62.23
2023-04-02T01:52:38.187Z,62.13
2023-04-02T01:55:07.506Z,62.66
2023-04-02T01:57:34.401Z,63.26
2023-04-02T02:00:02.276Z,63.29
2023-04-02T02:02:29.265Z,62.90
2023-04-02T02:04:56.115Z,62.98
2023-04-02T02:07:22.893Z,63.21
2023-04-02T02:09:53.672Z,63.38
2023-04-02T02:12:20.713Z,63.30
2023-04-02T02:14:51.557Z,62.28
2023-04-02T02:17:29.637Z,62.93
2023-04-02T02:20:00.456Z,63.18
2023-04-02T02:22:30.733Z,62.39
2023-04-02T02:24:59.640Z,63.05
2023-04-02T02:27:26.208Z,63.03
2023-04-02T02:30:12.761Z,62.80
2023-04-02T02:32:48.350Z,61.97
2023-04-02T02:35:21.825Z,62.33
2023-04-02T02:38:11.179Z,60.42
2023-04-02T02:40:45.223Z,62.18
2023-04-02T02:43:14.869Z,62.99
2023-04-02T02:45:44.621Z,63.06
2023-04-02T02:48:15.124Z,62.48
2023-04-02T02:50:43.863Z,62.93
2023-04-02T02:53:21.589Z,61.54
2023-04-02T02:55:53.788Z,62.88
2023-04-02T02:58:28.011Z,63.16
2023-04-02T03:01:12.326Z,63.42
2023-04-02T03:03:42.458Z,63.55
2023-04-02T03:06:14.255Z,63.43
2023-04-02T03:08:42.884Z,63.33
2023-04-02T03:12:01.292Z,61.75
2023-04-02T03:14:40.357Z,61.88
2023-04-02T03:17:28.767Z,61.33
2023-04-02T03:20:06.163Z,61.11
2023-04-02T03:23:06.765Z,61.98
2023-04-02T03:25:42.583Z,60.80
2023-04-02T03:28:18.149Z,61.35
2023-04-02T03:30:50.413Z,62.31
2023-04-02T03:33:23.658Z,62.31
2023-04-02T03:36:02.948Z,61.83
2023-04-02T03:38:36.876Z,63.01
2023-04-02T03:41:17.242Z,62.36
2023-04-02T03:43:47.749Z,62.84
2023-04-02T03:46:35.766Z,61.96
2023-04-02T03:49:09.671Z,63.02
2023-04-02T03:51:53.086Z,62.16
2023-04-02T03:54:20.948Z,63.80
2023-04-02T03:56:49.141Z,63.81
2023-04-02T03:59:44.839Z,61.97
2023-04-02T04:02:27.006Z,61.77
2023-04-02T04:04:55.611Z,63.78
2023-04-02T04:07:31.147Z,62.83
2023-04-02T04:10:00.604Z,63.88
2023-04-02T04:12:39.548Z,62.95
2023-04-02T04:15:19.506Z,62.44
2023-04-02T04:18:00.390Z,63.18
2023-04-02T04:20:40.140Z,63.53
2023-04-02T04:23:19.617Z,62.31
2023-04-02T04:25:46.510Z,64.12
2023-04-02T04:28:19.456Z,63.92
2023-04-02T04:31:02.992Z,62.14
2023-04-02T04:33:46.902Z,62.15
2023-04-02T04:36:27.284Z,62.90
2023-04-02T04:39:00.498Z,63.43
2023-04-02T04:41:36.737Z,62.90
2023-04-02T04:44:23.695Z,62.87
2023-04-02T04:47:07.796Z,62.53
2023-04-02T04:49:38.700Z,63.28
2023-04-02T04:52:14.173Z,63.18
2023-04-02T04:54:41.647Z,64.26
2023-04-02T04:57:27.430Z,61.02
2023-04-02T05:00:22.731Z,62.38
2023-04-02T05:03:03.282Z,62.56
2023-04-02T05:05:34.150Z,63.64
2023-04-02T05:08:25.008Z,62.62
2023-04-02T05:11:11.031Z,62.55
2023-04-02T05:13:50.437Z,63.37
2023-04-02T05:16:29.978Z,62.67
2023-04-02T05:19:05.231Z,62.87
2023-04-02T05:22:00.277Z,60.40
2023-04-02T05:24:39.650Z,62.61
2023-04-02T05:27:23.811Z,62.11
2023-04-02T05:29:59.610Z,62.65
2023-04-02T05:32:34.672Z,63.00
2023-04-02T05:35:03.987Z,64.33
2023-04-02T05:37:31.868Z,64.26
2023-04-02T05:40:13.622Z,62.47
2023-04-02T05:42:45.269Z,63.47
2023-04-02T05:45:29.152Z,62.65
2023-04-02T05:48:01.924Z,64.20
2023-04-02T05:50:40.248Z,63.92
2023-04-02T05:53:25.820Z,63.33
2023-04-02T05:56:19.993Z,62.51
2023-04-02T05:59:26.341Z,62.89
2023-04-02T06:02:04.843Z,64.18
2023-04-02T06:04:50.719Z,62.63
2023-04-02T06:07:24.603Z,63.08
2023-04-02T06:10:10.233Z,62.46
2023-04-02T06:12:47.620Z,63.17
2023-04-02T06:15:18.324Z,63.22
2023-04-02T06:18:25.991Z,63.41
2023-04-02T06:20:54.095Z,63.24
2023-04-02T06:23:28.871Z,61.77
2023-04-02T06:26:05.319Z,62.27
2023-04-02T06:28:46.295Z,61.39
2023-04-02T06:31:27.715Z,62.61
2023-04-02T06:33:56.366Z,63.66
2023-04-02T06:36:27.777Z,63.06
2023-04-02T06:39:07.788Z,63.30
2023-04-02T06:41:35.114Z,63.18
2023-04-02T06:44:27.590Z,63.14
2023-04-02T06:47:05.254Z,62.61
2023-04-02T06:49:34.720Z,61.99
2023-04-02T06:52:08.665Z,63.06
2023-04-02T06:54:35.658Z,62.60
2023-04-02T06:57:07.048Z,62.82
2023-04-02T06:59:37.425Z,62.73
2023-04-02T07:02:37.151Z,62.16
2023-04-02T07:05:09.243Z,62.44
2023-04-02T07:07:38.922Z,63.11
2023-04-02T07:10:08.655Z,63.02
2023-04-02T07:12:35.358Z,62.25
2023-04-02T07:15:01.993Z,62.05
2023-04-02T07:17:28.768Z,62.47
2023-04-02T07:19:55.533Z,62.51
2023-04-02T07:22:23.083Z,62.86
2023-04-02T07:24:54.247Z,62.54
2023-04-02T07:27:20.997Z,61.28
2023-04-02T07:29:47.650Z,61.53
2023-04-02T07:32:14.565Z,61.50
2023-04-02T07:34:41.921Z,61.80
2023-04-02T07:37:12.922Z,61.30
2023-04-02T07:39:40.774Z,61.31
2023-04-02T07:42:07.423Z,61.53
2023-04-02T07:44:34.137Z,60.42
2023-04-02T07:47:00.878Z,60.54
2023-04-02T07:49:27.631Z,60.20
2023-04-02T07:51:54.230Z,60.93
2023-04-02T07:54:20.802Z,59.50
2023-04-02T07:56:47.394Z,60.47
2023-04-02T07:59:14.224Z,60.80
2023-04-02T08:01:40.837Z,60.34
2023-04-02T08:04:17.573Z,59.68
2023-04-02T08:06:44.431Z,60.00
2023-04-02T08:09:11.107Z,59.77
2023-04-02T08:11:37.686Z,60.48
2023-04-02T08:14:04.322Z,59.63
2023-04-02T08:16:48.559Z,55.96
2023-04-02T08:19:15.634Z,59.85
2023-04-02T08:21:42.541Z,60.73
2023-04-02T08:24:09.349Z,59.56
2023-04-02T08:26:35.920Z,59.23
2023-04-02T08:29:02.717Z,58.20
2023-04-02T08:31:29.424Z,58.77
2023-04-02T08:33:56.096Z,58.91
2023-04-02T08:36:29.864Z,57.53
2023-04-02T08:38:56.709Z,57.98
2023-04-02T08:41:26.049Z,57.41
2023-04-02T08:44:22.917Z,55.12
2023-04-02T08:47:02.819Z,56.06
2023-04-02T08:49:35.612Z,55.97
2023-04-02T08:52:02.348Z,57.18
2023-04-02T08:54:32.367Z,56.90
2023-04-02T08:57:06.816Z,54.82
2023-04-02T08:59:41.952Z,55.86
2023-04-02T09:02:47.330Z,52.51
2023-04-02T09:05:23.463Z,56.24
2023-04-02T09:07:51.328Z,55.71
2023-04-02T09:10:19.022Z,57.46
2023-04-02T09:12:51.859Z,56.22
2023-04-02T09:15:36.409Z,53.92
2023-04-02T09:18:18.671Z,52.39
2023-04-02T09:20:45.690Z,55.42
2023-04-02T09:23:20.472Z,52.63
2023-04-02T09:26:03.050Z,54.98
2023-04-02T09:28:30.568Z,56.23
2023-04-02T09:31:06.838Z,53.81
2023-04-02T09:33:41.941Z,54.17
2023-04-02T09:36:19.547Z,53.72
2023-04-02T09:39:12.283Z,52.79
2023-04-02T09:41:39.144Z,53.65
2023-04-02T09:44:17.576Z,51.28
2023-04-02T09:46:55.780Z,52.90
2023-04-02T09:49:25.708Z,53.59
2023-04-02T09:52:18.428Z,54.46
2023-04-02T09:54:45.069Z,54.51
2023-04-02T09:57:22.903Z,52.99
2023-04-02T10:00:14.588Z,55.35
2023-04-02T10:03:05.330Z,55.62
2023-04-02T10:05:40.660Z,53.56
2023-04-02T10:08:18.140Z,54.80
2023-04-02T10:10:50.630Z,52.24
2023-04-02T10:13:24.501Z,50.95
2023-04-02T10:16:45.778Z,50.27
2023-04-02T10:19:26.872Z,52.71
2023-04-02T10:21:55.484Z,51.80
2023-04-02T10:24:22.177Z,52.76
2023-04-02T10:27:03.780Z,51.75
2023-04-02T10:29:38.919Z,51.27
2023-04-02T10:32:26.520Z,49.52
2023-04-02T10:35:03.668Z,49.70
2023-04-02T10:37:57.736Z,53.50
2023-04-02T10:40:36.879Z,52.66
2023-04-02T10:43:12.472Z,53.06
2023-04-02T10:45:44.609Z,52.44
2023-04-02T10:48:25.652Z,51.03
2023-04-02T10:51:07.334Z,50.54
2023-04-02T10:53:58.389Z,50.48
2023-04-02T10:56:27.156Z,51.72
2023-04-02T10:59:02.532Z,52.00
2023-04-02T11:01:31.211Z,51.72
2023-04-02T11:04:06.044Z,50.66
2023-04-02T11:06:41.939Z,51.40
2023-04-02T11:09:17.601Z,51.22
2023-04-02T11:11:48.312Z,52.97
2023-04-02T11:14:32.898Z,51.65
2023-04-02T11:17:01.743Z,52.78
2023-04-02T11:19:35.137Z,52.48
2023-04-02T11:22:06.760Z,52.45
2023-04-02T11:24:48.710Z,51.55
2023-04-02T11:27:20.678Z,52.58
2023-04-02T11:29:55.900Z,50.22
2023-04-02T11:32:22.571Z,51.87
2023-04-02T11:35:03.019Z,50.11
2023-04-02T11:37:36.704Z,49.06
2023-04-02T11:40:47.428Z,50.14
2023-04-02T11:43:32.741Z,50.36
2023-04-02T11:46:25.869Z,50.69
2023-04-02T11:48:52.526Z,52.14
2023-04-02T11:51:22.225Z,52.29
2023-04-02T11:53:51.770Z,51.89
2023-04-02T11:56:45.842Z,51.48
2023-04-02T11:59:24.159Z,52.58
2023-04-02T12:02:08.748Z,53.25
2023-04-02T12:04:45.965Z,53.53
2023-04-02T12:07:37.711Z,54.16
2023-04-02T12:10:19.446Z,51.82
2023-04-02T12:12:46.523Z,51.08
2023-04-02T12:15:32.948Z,51.85
2023-04-02T12:18:06.720Z,52.16
2023-04-02T12:20:34.404Z,52.85
2023-04-02T12:23:01.986Z,52.49
2023-04-02T12:25:34.477Z,49.59
2023-04-02T12:28:19.237Z,50.73
2023-04-02T12:30:47.823Z,49.82
2023-04-02T12:33:36.278Z,49.96
2023-04-02T12:36:06.918Z,50.77
2023-04-02T12:38:36.483Z,49.90
2023-04-02T12:41:16.742Z,49.69
2023-04-02T12:43:44.376Z,51.83
2023-04-02T12:46:14.906Z,51.88
2023-04-02T12:48:41.788Z,52.18
2023-04-02T12:51:10.563Z,51.73
2023-04-02T12:53:40.531Z,52.77
2023-04-02T12:56:17.992Z,52.29
2023-04-02T12:58:56.175Z,53.45
2023-04-02T13:01:27.145Z,54.16
2023-04-02T13:04:10.909Z,53.77
2023-04-02T13:06:39.871Z,54.01
2023-04-02T13:09:28.577Z,54.82
2023-04-02T13:11:55.881Z,55.69
2023-04-02T13:14:24.490Z,56.06
2023-04-02T13:16:51.210Z,56.17
2023-04-02T13:19:17.741Z,56.76
2023-04-02T13:21:45.581Z,57.71
2023-04-02T13:24:19.836Z,58.52
2023-04-02T13:26:46.993Z,59.29
2023-04-02T13:29:30.290Z,59.57
2023-04-02T13:32:06.306Z,60.46
2023-04-02T13:34:32.869Z,61.05
2023-04-02T13:36:59.461Z,61.32
2023-04-02T13:39:26.341Z,61.10
2023-04-02T13:42:01.646Z,61.57
2023-04-02T13:44:33.933Z,61.28
2023-04-02T13:47:01.282Z,61.58
2023-04-02T13:49:28.342Z,62.21
2023-04-02T13:51:57.952Z,62.62
2023-04-02T13:54:39.405Z,62.86
2023-04-02T13:57:06.073Z,63.49
2023-04-02T13:59:32.740Z,63.44
2023-04-02T14:02:04.552Z,63.53
2023-04-02T14:04:35.330Z,64.17
2023-04-02T14:07:50.222Z,62.89
2023-04-02T14:10:32.845Z,62.84
2023-04-02T14:13:05.634Z,62.57
2023-04-02T14:15:54.005Z,62.73
2023-04-02T14:18:39.403Z,62.36
2023-04-02T14:21:14.680Z,63.58
2023-04-02T14:24:08.869Z,62.95
2023-04-02T14:26:45.217Z,63.64
2023-04-02T14:29:38.021Z,62.63
2023-04-02T14:32:32.081Z,60.89
2023-04-02T14:35:22.626Z,61.32
2023-04-02T14:38:17.368Z,59.70
2023-04-02T14:41:07.357Z,59.25
2023-04-02T14:43:45.074Z,58.89
2023-04-02T14:46:11.925Z,58.82
2023-04-02T14:48:44.615Z,59.78
2023-04-02T14:51:31.426Z,60.46
2023-04-02T14:54:21.102Z,60.83
2023-04-02T14:56:52.208Z,61.60
2023-04-02T14:59:35.557Z,61.84
2023-04-02T15:02:27.901Z,61.77
2023-04-02T15:05:01.647Z,62.58
2023-04-02T15:07:39.787Z,63.16
2023-04-02T15:10:09.273Z,63.56
2023-04-02T15:12:40.629Z,63.93
2023-04-02T15:15:39.985Z,63.85
2023-04-02T15:18:14.009Z,63.73
2023-04-02T15:20:54.769Z,63.70
2023-04-02T15:23:45.672Z,63.81
2023-04-02T15:26:25.660Z,64.50
2023-04-02T15:29:28.186Z,64.85
2023-04-02T15:32:05.263Z,65.29
2023-04-02T15:34:52.317Z,64.82
2023-04-02T15:38:00.493Z,65.26
2023-04-02T15:40:36.294Z,65.41
2023-04-02T15:43:18.875Z,65.14
2023-04-02T15:46:11.848Z,65.46
2023-04-02T15:49:15.970Z,65.38
2023-04-02T15:52:10.611Z,64.97
2023-04-02T15:54:46.756Z,65.11
2023-04-02T15:57:38.111Z,64.79
2023-04-02T16:00:16.588Z,65.42
2023-04-02T16:03:18.740Z,65.70
2023-04-02T16:05:58.860Z,65.61
2023-04-02T16:08:56.728Z,65.77
2023-04-02T16:11:24.424Z,65.41
2023-04-02T16:13:53.803Z,65.47
2023-04-02T16:16:30.217Z,64.52
2023-04-02T16:19:24.896Z,64.66
2023-04-02T16:22:13.507Z,64.64
2023-04-02T16:24:40.130Z,65.02
2023-04-02T16:27:12.722Z,65.19
2023-04-02T16:30:00.959Z,65.03
2023-04-02T16:33:01.531Z,65.52
2023-04-02T16:36:02.092Z,64.73
2023-04-02T16:38:58.474Z,63.83
2023-04-02T16:41:53.817Z,61.65
2023-04-02T16:44:32.243Z,62.67
2023-04-02T16:47:20.576Z,62.93
2023-04-02T16:50:15.932Z,61.75
2023-04-02T16:53:27.218Z,61.98
2023-04-02T16:56:07.606Z,62.65
2023-04-02T16:58:59.451Z,62.76
2023-04-02T17:01:58.413Z,62.71
2023-04-02T17:04:49.720Z,62.21
2023-04-02T17:07:44.481Z,62.54
2023-04-02T17:10:29.183Z,62.73
2023-04-02T17:13:14.837Z,63.08
2023-04-02T17:15:45.720Z,61.01
2023-04-02T17:18:20.741Z,61.70
2023-04-02T17:20:48.328Z,61.37
2023-04-02T17:23:16.853Z,61.49
2023-04-02T17:25:56.016Z,62.23
2023-04-02T17:28:30.887Z,62.67
2023-04-02T17:31:00.182Z,63.18
2023-04-02T17:33:26.775Z,63.50
2023-04-02T17:36:16.205Z,63.20
2023-04-02T17:38:58.028Z,62.65
2023-04-02T17:41:39.678Z,62.45
2023-04-02T17:44:50.184Z,62.56
2023-04-02T17:47:42.593Z,62.55
2023-04-02T17:50:09.155Z,62.18
2023-04-02T17:52:56.238Z,61.89
2023-04-02T17:55:40.036Z,61.30
2023-04-02T17:58:30.324Z,60.26
2023-04-02T18:01:15.609Z,60.60
2023-04-02T18:03:58.218Z,60.40
2023-04-02T18:06:39.474Z,60.70
2023-04-02T18:09:24.185Z,59.75
2023-04-02T18:12:01.546Z,59.29
2023-04-02T18:14:52.117Z,58.84
2023-04-02T18:17:44.934Z,59.75
2023-04-02T18:20:32.901Z,60.39
2023-04-02T18:23:08.047Z,60.57
2023-04-02T18:25:43.282Z,60.34
2023-04-02T18:28:33.343Z,60.42
2023-04-02T18:31:34.676Z,60.36
2023-04-02T18:34:07.084Z,60.56
2023-04-02T18:36:43.272Z,60.89
2023-04-02T18:39:41.212Z,61.14
2023-04-02T18:42:16.524Z,60.47
2023-04-02T18:45:02.874Z,61.37
2023-04-02T18:47:44.680Z,60.44
2023-04-02T18:50:18.255Z,60.37
2023-04-02T18:52:45.431Z,60.66
2023-04-02T18:55:18.438Z,61.09
2023-04-02T18:57:48.757Z,60.47
2023-04-02T19:00:27.566Z,60.51
2023-04-02T19:03:07.109Z,60.76
2023-04-02T19:05:41.026Z,61.33
2023-04-02T19:08:31.105Z,61.49
2023-04-02T19:11:12.627Z,62.28
2023-04-02T19:13:39.669Z,62.04
2023-04-02T19:16:17.773Z,61.12
2023-04-02T19:19:04.827Z,60.48
2023-04-02T19:21:46.615Z,59.17
2023-04-02T19:24:28.334Z,59.30
2023-04-02T19:27:25.319Z,59.87
2023-04-02T19:30:03.321Z,60.15
2023-04-02T19:32:55.938Z,58.75
2023-04-02T19:35:35.045Z,58.87
2023-04-02T19:38:29.967Z,59.48
2023-04-02T19:41:18.042Z,58.83
2023-04-02T19:43:44.821Z,58.32
2023-04-02T19:46:11.552Z,57.86
2023-04-02T19:48:53.857Z,58.70
2023-04-02T19:51:20.532Z,58.80
2023-04-02T19:53:47.127Z,59.07
2023-04-02T19:56:13.857Z,59.09
2023-04-02T19:58:40.467Z,59.45
2023-04-02T20:01:07.084Z,59.72
2023-04-02T20:03:34.096Z,58.06
2023-04-02T20:06:00.776Z,57.79
2023-04-02T20:08:28.379Z,58.80
2023-04-02T20:10:56.028Z,58.91
2023-04-02T20:13:22.641Z,59.49
2023-04-02T20:15:49.233Z,59.37
2023-04-02T20:18:15.828Z,59.41
2023-04-02T20:20:45.877Z,58.90
2023-04-02T20:23:12.539Z,59.34
2023-04-02T20:25:45.007Z,59.77
2023-04-02T20:28:11.936Z,60.07
2023-04-02T20:30:38.949Z,60.67
2023-04-02T20:33:05.866Z,60.84
2023-04-02T20:35:32.520Z,61.32
2023-04-02T20:37:59.106Z,61.84
2023-04-02T20:40:25.787Z,61.46
2023-04-02T20:42:52.500Z,61.78
2023-04-02T20:45:19.137Z,61.98
2023-04-02T20:47:45.740Z,61.88
2023-04-02T20:50:12.322Z,62.21
2023-04-02T20:52:38.986Z,62.91
2023-04-02T20:55:06.155Z,63.51
2023-04-02T20:57:32.882Z,64.01
2023-04-02T20:59:59.646Z,63.82
2023-04-02T21:02:26.413Z,64.08
2023-04-02T21:04:53.098Z,64.23
2023-04-02T21:07:19.829Z,64.58
2023-04-02T21:09:46.444Z,64.72
2023-04-02T21:12:13.057Z,65.01
2023-04-02T21:14:39.620Z,65.15
2023-04-02T21:17:06.846Z,65.25
2023-04-02T21:19:34.494Z,65.19
2023-04-02T21:22:01.079Z,65.55
2023-04-02T21:24:27.773Z,65.45
2023-04-02T21:26:54.369Z,65.57
2023-04-02T21:29:20.951Z,65.98
2023-04-02T21:31:47.577Z,66.09
2023-04-02T21:34:16.392Z,66.08
2023-04-02T21:36:46.078Z,65.85
2023-04-02T21:39:21.962Z,65.64
2023-04-02T21:41:50.649Z,65.68
2023-04-02T21:44:19.032Z,65.95
2023-04-02T21:46:45.733Z,65.95
2023-04-02T21:49:15.701Z,65.82
2023-04-02T21:51:44.469Z,66.11
2023-04-02T21:54:11.276Z,66.11
2023-04-02T21:56:40.563Z,66.37
2023-04-02T21:59:08.823Z,66.23
2023-04-02T22:01:38.623Z,66.12
2023-04-02T22:04:07.696Z,66.45
2023-04-02T22:06:40.188Z,66.54
2023-04-02T22:09:13.140Z,66.93
2023-04-02T22:11:43.728Z,67.06
2023-04-02T22:14:11.110Z,67.20
2023-04-02T22:16:38.541Z,67.11
2023-04-02T22:19:08.436Z,67.00
2023-04-02T22:21:36.159Z,66.71
2023-04-02T22:24:04.919Z,66.49
2023-04-02T22:26:32.267Z,66.11
2023-04-02T22:29:00.104Z,66.05
2023-04-02T22:31:29.566Z,65.99
2023-04-02T22:33:57.191Z,66.25
2023-04-02T22:36:25.456Z,66.42
2023-04-02T22:38:52.498Z,65.91
2023-04-02T22:41:24.816Z,65.53
2023-04-02T22:43:51.568Z,65.76
2023-04-02T22:46:19.900Z,65.67
2023-04-02T22:48:47.885Z,65.69
2023-04-02T22:51:16.580Z,65.96
2023-04-02T22:53:43.241Z,65.73
2023-04-02T22:56:13.728Z,65.44
2023-04-02T22:58:40.987Z,66.01
2023-04-02T23:01:14.986Z,66.08
2023-04-02T23:03:42.482Z,66.75
2023-04-02T23:06:12.648Z,66.90
2023-04-02T23:08:39.687Z,66.40
2023-04-02T23:11:07.681Z,66.62
2023-04-02T23:13:35.604Z,66.64
2023-04-02T23:16:03.795Z,66.29
2023-04-02T23:18:38.262Z,65.70
2023-04-02T23:21:06.300Z,65.65
2023-04-02T23:23:33.428Z,65.58
2023-04-02T23:26:04.266Z,65.93
2023-04-02T23:28:31.047Z,66.01
2023-04-02T23:30:57.710Z,65.83
2023-04-02T23:33:24.300Z,65.84
2023-04-02T23:35:51.044Z,65.88
2023-04-02T23:38:17.711Z,66.30
2023-04-02T23:40:44.326Z,66.57
2023-04-02T23:43:11.272Z,66.72
2023-04-02T23:45:37.880Z,66.52
2023-04-02T23:48:05.015Z,66.22
2023-04-02T23:50:31.597Z,66.38
2023-04-02T23:52:58.235Z,66.57
2023-04-02T23:55:24.858Z,66.63
2023-04-02T23:57:51.524Z,66.64
